Terminal Aerodrome Forecast
Issued by NWS Boston, MA

Current Version | Previous Version | Text Only | Print | Product List | Glossary On
Versions: 1 2 3 4 5 6 7 8 9 10 11 12 13 14 15 16 17 18 19 20 21 22
000 FTUS41 KBOX 242320 TAFBDL TAF KBDL 242320Z 2500/2606 33007KT P6SM FEW060 FM250300 VRB03KT P6SM SKC FM251600 34007KT P6SM SKC FM260300 VRB03KT P6SM SKC=

USA.gov is the U.S. government's official web portal to all federal, state and local government web resources and services.